Time;durP1;ratioP1;P1;durP2;ratioP2;P2;SDS_P1;SDS_P2;PMS_P1;PMS_P2;Temp;Humidity;BMP_temperature;BMP_pressure;BME280_temperature;BME280_humidity;BME280_pressure;Samples;Min_cycle;Max_cycle;Signal;HPM_P1;HPM_P2
2023/04/06 00:00:26;;;;;;;10.57;7.07;;;;;;;1.03;55.36;94735.06;5004961;28;20060;-78
2023/04/06 00:02:52;;;;;;;12.10;7.93;;;;;;;0.99;55.34;94728.84;5002425;28;20109;-78
2023/04/06 00:05:18;;;;;;;8.65;6.63;;;;;;;1.03;55.35;94729.63;5004431;28;20548;-78
2023/04/06 00:07:44;;;;;;;10.13;6.93;;;;;;;1.14;54.89;94715.34;5018461;28;20026;-78
2023/04/06 00:10:09;;;;;;;10.80;7.35;;;;;;;1.00;55.14;94722.28;5037381;28;20045;-78
2023/04/06 00:12:35;;;;;;;12.95;7.90;;;;;;;1.11;54.79;94714.19;5003642;28;20038;-78
2023/04/06 00:15:01;;;;;;;8.27;6.82;;;;;;;1.14;54.78;94710.72;5005754;28;20172;-79
2023/04/06 00:17:27;;;;;;;8.18;6.80;;;;;;;1.15;54.85;94706.88;5009430;28;20105;-80
2023/04/06 00:19:52;;;;;;;10.88;7.72;;;;;;;1.28;54.59;94701.88;5006394;28;20109;-78
2023/04/06 00:22:18;;;;;;;10.07;7.10;;;;;;;1.30;54.29;94700.31;5037604;28;20109;-78
2023/04/06 00:24:43;;;;;;;9.05;6.95;;;;;;;1.35;54.24;94701.13;5036860;28;20439;-78
2023/04/06 00:27:09;;;;;;;10.27;8.35;;;;;;;1.38;53.91;94692.19;5008385;28;20389;-78
2023/04/06 00:29:34;;;;;;;10.18;7.97;;;;;;;1.27;54.42;94700.31;5038874;28;20041;-79
2023/04/06 00:32:00;;;;;;;11.80;7.75;;;;;;;1.33;54.25;94688.72;5024364;28;20128;-78
2023/04/06 00:34:25;;;;;;;10.43;7.15;;;;;;;1.25;54.33;94683.66;5007255;28;20084;-78
2023/04/06 00:36:50;;;;;;;10.57;7.90;;;;;;;1.23;54.25;94684.06;5008904;28;20030;-77
2023/04/06 00:39:16;;;;;;;11.25;7.68;;;;;;;1.30;54.20;94686.00;5008927;28;20041;-78
2023/04/06 00:41:46;;;;;;;13.40;8.38;;;;;;;1.29;54.25;94677.09;5007334;28;20030;-78
2023/04/06 00:44:11;;;;;;;9.75;7.75;;;;;;;1.30;54.37;94683.28;5008099;28;20524;-77
2023/04/06 00:46:37;;;;;;;11.50;7.22;;;;;;;1.31;54.13;94674.00;5006560;28;20083;-79
2023/04/06 00:49:02;;;;;;;8.80;7.03;;;;;;;1.34;54.12;94678.66;5009409;28;20030;-78
2023/04/06 00:51:27;;;;;;;9.35;7.53;;;;;;;1.44;54.10;94680.63;5005383;28;20480;-80
2023/04/06 00:53:54;;;;;;;10.70;7.60;;;;;;;1.51;53.89;94675.22;5040531;28;20436;-77
2023/04/06 00:56:19;;;;;;;10.38;7.82;;;;;;;1.49;53.86;94680.25;5006461;28;20073;-80
2023/04/06 00:58:45;;;;;;;10.05;8.02;;;;;;;1.52;54.01;94673.28;5007700;28;20053;-79
2023/04/06 01:01:10;;;;;;;9.57;7.90;;;;;;;1.58;53.87;94669.03;5008565;28;20026;-78
2023/04/06 01:03:35;;;;;;;10.43;7.88;;;;;;;1.57;53.79;94675.63;5006332;28;20080;-78
2023/04/06 01:06:01;;;;;;;10.45;7.40;;;;;;;1.61;53.73;94676.41;5009041;28;20032;-79
2023/04/06 01:08:26;;;;;;;10.32;8.70;;;;;;;1.67;53.46;94674.88;5004846;28;20036;-78
2023/04/06 01:10:52;;;;;;;11.13;8.07;;;;;;;1.71;53.70;94677.56;5040194;28;20040;-78
2023/04/06 01:13:18;;;;;;;12.20;8.18;;;;;;;1.63;54.38;94665.94;5010649;28;20083;-77
2023/04/06 01:15:43;;;;;;;13.68;8.48;;;;;;;1.54;55.00;94668.25;5007986;28;20026;-79
2023/04/06 01:18:11;;;;;;;11.93;8.15;;;;;;;1.67;54.68;94672.16;5006852;28;20234;-78
2023/04/06 01:20:37;;;;;;;12.38;8.90;;;;;;;1.44;55.38;94663.59;5006833;28;20432;-77
2023/04/06 01:23:03;;;;;;;12.55;9.05;;;;;;;1.37;56.23;94660.88;5040019;28;20030;-78
2023/04/06 01:25:28;;;;;;;10.57;8.40;;;;;;;1.43;56.13;94664.75;5006069;28;20539;-78
2023/04/06 01:27:53;;;;;;;9.63;7.88;;;;;;;1.55;55.96;94662.47;5039985;28;20358;-78
2023/04/06 01:30:19;;;;;;;13.55;9.15;;;;;;;1.68;55.62;94662.09;5004756;28;20044;-78
2023/04/06 01:32:45;;;;;;;12.77;8.73;;;;;;;1.68;55.96;94664.78;5007987;28;20026;-78
2023/04/06 01:35:10;;;;;;;12.07;8.75;;;;;;;1.71;55.97;94661.28;5004389;28;20092;-78
2023/04/06 01:37:36;;;;;;;10.77;8.13;;;;;;;1.75;56.00;94657.44;5006284;28;20973;-79
2023/04/06 01:40:02;;;;;;;12.05;8.93;;;;;;;1.65;56.42;94658.19;5006392;28;20021;-80
2023/04/06 01:42:28;;;;;;;12.63;9.25;;;;;;;1.64;56.48;94656.66;5006261;28;20408;-79
2023/04/06 01:44:53;;;;;;;12.95;8.75;;;;;;;1.65;56.40;94650.06;5008068;28;20028;-79
2023/04/06 01:47:19;;;;;;;13.43;8.88;;;;;;;1.71;56.21;94653.94;5037489;28;20038;-79
2023/04/06 01:49:44;;;;;;;11.48;9.15;;;;;;;1.78;55.74;94662.09;5008010;28;20476;-79
2023/04/06 01:52:09;;;;;;;10.93;8.63;;;;;;;1.81;55.76;94647.75;5037532;28;20082;-79
2023/04/06 01:54:35;;;;;;;14.57;8.80;;;;;;;1.83;55.94;94647.34;5007812;28;20041;-79
2023/04/06 01:57:00;;;;;;;12.00;8.32;;;;;;;1.79;56.18;94650.09;5005243;28;20129;-79
2023/04/06 01:59:26;;;;;;;12.80;8.75;;;;;;;1.79;56.30;94649.31;5006680;28;20105;-80
2023/04/06 02:01:51;;;;;;;12.80;9.10;;;;;;;1.82;56.40;94643.88;5007331;28;20034;-80
2023/04/06 02:04:16;;;;;;;11.07;8.52;;;;;;;1.83;56.30;94636.50;5005536;28;20030;-80
2023/04/06 02:06:42;;;;;;;14.77;9.43;;;;;;;1.84;56.35;94644.28;5008066;28;20022;-81
2023/04/06 02:09:07;;;;;;;12.90;8.98;;;;;;;1.82;56.42;94633.03;5012478;28;20032;-80
2023/04/06 02:11:33;;;;;;;15.40;8.73;;;;;;;1.79;56.33;94641.19;5006714;28;20034;-78
2023/04/06 02:14:00;;;;;;;11.18;8.63;;;;;;;1.80;56.33;94640.78;5005266;28;20084;-77
2023/04/06 02:16:26;;;;;;;14.40;9.80;;;;;;;1.74;56.59;94641.56;5006954;28;20060;-79
2023/04/06 02:18:51;;;;;;;11.35;9.00;;;;;;;1.72;56.59;94646.59;5005237;28;20034;-79
2023/04/06 02:21:20;;;;;;;12.68;8.82;;;;;;;1.77;56.27;94636.13;5004203;28;20428;-79
2023/04/06 02:23:46;;;;;;;14.60;9.63;;;;;;;1.75;56.25;94638.47;5038709;28;20026;-78
2023/04/06 02:26:12;;;;;;;13.38;9.40;;;;;;;1.65;56.72;94636.50;5004706;28;20537;-78
2023/04/06 02:28:37;;;;;;;13.07;9.07;;;;;;;1.69;56.65;94636.53;5007231;28;20117;-77
2023/04/06 02:31:03;;;;;;;12.30;9.40;;;;;;;1.59;56.55;94619.09;5003039;28;20083;-78
2023/04/06 02:33:28;;;;;;;12.27;8.82;;;;;;;1.75;56.45;94643.88;5005472;28;20083;-78
2023/04/06 02:35:54;;;;;;;12.50;9.63;;;;;;;1.75;56.52;94637.69;5005786;28;20433;-78
2023/04/06 02:38:19;;;;;;;11.15;8.77;;;;;;;1.84;56.15;94641.56;5005692;28;20492;-79
2023/04/06 02:40:45;;;;;;;14.43;9.35;;;;;;;1.88;56.07;94638.06;5006749;28;20091;-78
2023/04/06 02:43:10;;;;;;;11.38;8.65;;;;;;;1.81;56.17;94646.97;5036128;28;20029;-79
2023/04/06 02:45:36;;;;;;;12.00;8.85;;;;;;;1.75;56.07;94643.88;5007141;28;20025;-79
2023/04/06 02:48:01;;;;;;;11.80;8.15;;;;;;;1.76;56.15;94637.28;5019053;28;20026;-78
2023/04/06 02:50:26;;;;;;;12.00;8.55;;;;;;;1.79;55.86;94636.53;5006755;28;20030;-78
2023/04/06 02:52:52;;;;;;;12.55;8.73;;;;;;;1.84;55.85;94643.50;5004870;28;20413;-79
2023/04/06 02:55:19;;;;;;;11.48;8.13;;;;;;;1.79;55.46;94633.06;5021406;28;20034;-79
2023/04/06 02:57:45;;;;;;;11.95;7.80;;;;;;;1.67;55.19;94628.78;5006101;28;20057;-79
2023/04/06 03:00:11;;;;;;;9.50;6.43;;;;;;;1.69;54.80;94631.88;5003235;28;20026;-78
2023/04/06 03:02:37;;;;;;;9.45;6.47;;;;;;;1.66;54.43;94632.63;5005604;28;20026;-78
2023/04/06 03:05:03;;;;;;;8.43;6.78;;;;;;;1.67;54.19;94630.72;5008897;28;20033;-78
2023/04/06 03:07:28;;;;;;;10.55;7.20;;;;;;;1.81;53.70;94638.84;5006594;28;20030;-78
2023/04/06 03:09:54;;;;;;;10.48;6.95;;;;;;;1.86;53.92;94636.53;5003090;28;20559;-78
2023/04/06 03:12:20;;;;;;;8.45;6.97;;;;;;;1.96;53.65;94639.63;5006105;28;20045;-79
2023/04/06 03:14:47;;;;;;;10.02;6.78;;;;;;;1.94;53.65;94637.28;5005140;28;20065;-79
2023/04/06 03:17:12;;;;;;;9.80;7.75;;;;;;;2.03;53.45;94637.69;5022356;28;20034;-78
2023/04/06 03:19:37;;;;;;;11.80;7.70;;;;;;;1.95;54.61;94635.34;5006913;28;20045;-80
2023/04/06 03:22:03;;;;;;;12.43;8.88;;;;;;;1.94;55.22;94634.56;5019989;28;20030;-78
2023/04/06 03:24:28;;;;;;;11.45;8.52;;;;;;;1.94;55.48;94636.50;5021493;28;20096;-79
2023/04/06 03:26:54;;;;;;;12.10;8.63;;;;;;;1.88;55.69;94636.13;5003880;28;20076;-79
2023/04/06 03:29:20;;;;;;;12.52;9.13;;;;;;;1.95;55.80;94640.78;5005300;28;20037;-79
2023/04/06 03:31:45;;;;;;;14.05;9.63;;;;;;;1.88;55.62;94619.09;5035737;28;20578;-78
2023/04/06 03:34:11;;;;;;;11.85;8.57;;;;;;;2.00;55.56;94630.31;5005775;28;20029;-78
2023/04/06 03:36:36;;;;;;;13.88;9.52;;;;;;;1.95;55.93;94635.34;5005446;28;20026;-78
2023/04/06 03:39:02;;;;;;;14.05;9.43;;;;;;;1.98;55.86;94629.16;5004694;28;20030;-78
2023/04/06 03:41:27;;;;;;;12.40;9.20;;;;;;;2.06;55.70;94631.47;5004632;28;20026;-78
2023/04/06 03:43:52;;;;;;;15.30;9.98;;;;;;;1.99;56.23;94631.47;5035580;28;20104;-78
2023/04/06 03:46:18;;;;;;;20.35;12.13;;;;;;;1.99;56.38;94630.69;5005908;28;20014;-79
2023/04/06 03:48:43;;;;;;;13.50;10.23;;;;;;;2.04;56.51;94639.22;5003758;28;20026;-79
2023/04/06 03:51:09;;;;;;;14.07;9.80;;;;;;;1.97;56.54;94633.81;5006100;28;20445;-80
2023/04/06 03:53:36;;;;;;;15.90;10.90;;;;;;;1.92;57.00;94630.72;5004881;28;20475;-78
2023/04/06 03:56:02;;;;;;;14.95;10.85;;;;;;;1.99;57.32;94628.00;5005358;28;20033;-78
2023/04/06 03:58:27;;;;;;;16.20;10.98;;;;;;;1.89;57.68;94632.25;5006991;28;20049;-79
2023/04/06 04:00:52;;;;;;;16.45;11.38;;;;;;;1.94;57.68;94634.56;5012081;28;20041;-78
2023/04/06 04:03:18;;;;;;;16.13;10.85;;;;;;;2.00;57.50;94633.03;5009665;28;20029;-78
2023/04/06 04:05:43;;;;;;;14.63;11.25;;;;;;;2.03;57.35;94631.47;5007208;28;20037;-78
2023/04/06 04:08:09;;;;;;;16.38;11.27;;;;;;;2.03;57.56;94634.97;5009556;28;20037;-78
2023/04/06 04:10:34;;;;;;;17.67;11.25;;;;;;;1.95;57.81;94630.72;5007622;28;20038;-78
2023/04/06 04:13:00;;;;;;;15.45;11.15;;;;;;;2.01;57.82;94639.25;5009543;28;20030;-79
2023/04/06 04:15:25;;;;;;;15.65;11.43;;;;;;;1.99;57.81;94636.91;5008101;28;20509;-79
2023/04/06 04:17:51;;;;;;;16.73;12.23;;;;;;;1.99;58.08;94628.00;5008528;28;20033;-79
2023/04/06 04:20:17;;;;;;;17.67;12.43;;;;;;;2.07;57.82;94630.31;5009039;28;20505;-79
2023/04/06 04:22:42;;;;;;;18.38;13.45;;;;;;;1.97;57.95;94625.69;5005786;28;20412;-80
2023/04/06 04:25:08;;;;;;;19.17;12.05;;;;;;;1.85;57.42;94628.78;5008178;28;20029;-79
2023/04/06 04:27:34;;;;;;;14.95;10.52;;;;;;;1.95;57.18;94630.72;5021790;28;20029;-79
2023/04/06 04:30:00;;;;;;;14.15;10.63;;;;;;;1.93;56.56;94629.56;5008065;28;20038;-79
2023/04/06 04:32:27;;;;;;;13.40;8.88;;;;;;;1.97;56.33;94630.31;5006756;28;20025;-78
2023/04/06 04:34:53;;;;;;;14.48;9.13;;;;;;;1.97;56.07;94630.31;5007313;28;20397;-79
2023/04/06 04:37:18;;;;;;;14.25;9.07;;;;;;;2.03;55.87;94632.25;5006964;28;20040;-79
2023/04/06 04:39:45;;;;;;;13.77;9.55;;;;;;;2.12;55.88;94631.84;5007325;28;20109;-78
2023/04/06 04:42:10;;;;;;;21.17;10.38;;;;;;;2.18;55.52;94635.72;5024129;28;20493;-78
2023/04/06 04:44:36;;;;;;;13.88;9.15;;;;;;;2.22;55.46;94638.44;5006316;28;20348;-75
2023/04/06 04:47:01;;;;;;;14.18;9.13;;;;;;;2.22;55.13;94635.72;5007867;28;20124;-77
2023/04/06 04:49:27;;;;;;;14.10;8.55;;;;;;;2.24;54.49;94639.59;5006607;28;20436;-77
2023/04/06 04:51:52;;;;;;;13.85;9.35;;;;;;;2.26;54.25;94639.19;5008894;28;20030;-78
2023/04/06 04:54:18;;;;;;;14.10;9.48;;;;;;;2.25;54.27;94637.66;5009557;28;20029;-77
2023/04/06 04:56:45;;;;;;;17.58;10.20;;;;;;;2.35;54.08;94636.84;5008657;28;20074;-77
2023/04/06 04:59:10;;;;;;;14.82;8.63;;;;;;;2.32;54.32;94630.28;5008648;28;20112;-77
2023/04/06 05:01:36;;;;;;;14.88;9.43;;;;;;;2.32;53.59;94638.41;5006335;28;20113;-77
2023/04/06 05:04:01;;;;;;;14.60;9.68;;;;;;;2.36;53.68;94638.41;5008862;28;20504;-79
2023/04/06 05:06:26;;;;;;;16.42;9.02;;;;;;;2.42;53.54;94638.78;5006317;28;20049;-79
2023/04/06 05:08:52;;;;;;;11.43;8.40;;;;;;;2.44;53.40;94637.22;5008749;28;20389;-79
2023/04/06 05:11:17;;;;;;;13.35;8.65;;;;;;;2.49;53.11;94634.09;5004900;28;20040;-79
2023/04/06 05:13:43;;;;;;;12.30;8.00;;;;;;;2.34;53.25;94627.94;5007859;28;20404;-79
2023/04/06 05:16:08;;;;;;;14.35;8.88;;;;;;;2.40;53.26;94631.78;5007668;28;20041;-79
2023/04/06 05:18:34;;;;;;;12.85;8.05;;;;;;;2.29;53.50;94622.91;5038303;28;20029;-78
2023/04/06 05:20:59;;;;;;;12.95;8.07;;;;;;;2.18;53.87;94633.03;5023693;28;20025;-79
2023/04/06 05:23:25;;;;;;;12.98;8.32;;;;;;;2.11;54.36;94625.66;5004291;28;20026;-79
2023/04/06 05:25:50;;;;;;;11.95;8.13;;;;;;;2.15;54.53;94635.72;5008392;28;20096;-78
2023/04/06 05:28:16;;;;;;;12.07;8.75;;;;;;;2.23;54.25;94629.13;5004790;28;20037;-79
2023/04/06 05:30:42;;;;;;;12.85;9.07;;;;;;;2.12;54.81;94629.13;5006563;28;20034;-78
2023/04/06 05:33:09;;;;;;;11.48;8.40;;;;;;;2.12;54.68;94629.94;5038216;28;20543;-78
2023/04/06 05:35:34;;;;;;;13.88;8.95;;;;;;;2.30;54.50;94627.19;5006017;28;20508;-79
2023/04/06 05:38:00;;;;;;;15.10;9.57;;;;;;;2.24;54.84;94628.75;5039268;28;20036;-78
2023/04/06 05:40:25;;;;;;;13.27;9.13;;;;;;;2.22;54.96;94628.34;5006082;28;20095;-78
2023/04/06 05:42:51;;;;;;;14.00;9.52;;;;;;;2.24;55.06;94625.25;5007802;28;20522;-78
2023/04/06 05:45:18;;;;;;;15.52;9.77;;;;;;;2.13;55.39;94625.28;5004200;28;20096;-78
2023/04/06 05:47:44;;;;;;;14.02;10.20;;;;;;;2.33;55.06;94623.69;5007643;28;20026;-78
2023/04/06 05:50:11;;;;;;;14.48;9.75;;;;;;;2.26;55.23;94629.13;5007884;28;20060;-78
2023/04/06 05:52:36;;;;;;;18.35;11.20;;;;;;;2.32;55.25;94624.06;5006363;28;20025;-76
2023/04/06 05:55:02;;;;;;;18.05;11.07;;;;;;;2.45;55.04;94627.13;5005455;28;20018;-76
2023/04/06 05:57:28;;;;;;;18.45;11.27;;;;;;;2.38;55.27;94614.38;5004594;28;20366;-77
2023/04/06 05:59:53;;;;;;;16.30;10.93;;;;;;;2.50;55.05;94622.09;5006039;28;20025;-76
2023/04/06 06:02:20;;;;;;;17.75;10.73;;;;;;;2.67;54.80;94623.97;5003703;28;20033;-76
2023/04/06 06:04:45;;;;;;;14.40;10.43;;;;;;;2.55;55.10;94618.97;5006183;28;20062;-77
2023/04/06 06:07:11;;;;;;;16.70;10.65;;;;;;;2.62;55.04;94616.22;5005187;28;20030;-75
2023/04/06 06:09:36;;;;;;;16.40;10.35;;;;;;;2.65;55.03;94614.69;5007271;28;20527;-77
2023/04/06 06:12:02;;;;;;;14.43;10.20;;;;;;;2.70;54.77;94608.06;5005643;28;20041;-77
2023/04/06 06:14:28;;;;;;;15.00;9.80;;;;;;;2.67;54.80;94615.03;5022090;28;20096;-76
2023/04/06 06:16:54;;;;;;;12.65;9.65;;;;;;;2.64;54.33;94610.41;5007021;28;20056;-76
2023/04/06 06:19:19;;;;;;;13.48;9.90;;;;;;;2.73;54.30;94615.41;5005576;28;20026;-76
2023/04/06 06:21:45;;;;;;;14.52;10.02;;;;;;;2.67;54.49;94612.34;5005066;28;20037;-78
2023/04/06 06:24:10;;;;;;;15.23;10.23;;;;;;;2.57;54.82;94613.13;5004461;28;20030;-75
2023/04/06 06:26:37;;;;;;;16.10;10.55;;;;;;;2.52;55.00;94614.31;5007172;28;20555;-75
2023/04/06 06:29:05;;;;;;;17.65;10.20;;;;;;;2.56;55.00;94611.59;5019761;28;20026;-77
2023/04/06 06:31:30;;;;;;;14.43;9.70;;;;;;;2.58;55.08;94617.41;5005402;28;20034;-76
2023/04/06 06:33:56;;;;;;;12.82;9.73;;;;;;;2.55;54.86;94615.47;5005903;28;20399;-76
2023/04/06 06:36:21;;;;;;;19.95;9.90;;;;;;;2.78;54.53;94623.94;5004420;28;20026;-77
2023/04/06 06:38:46;;;;;;;14.27;9.90;;;;;;;2.84;54.33;94619.63;5006426;28;20033;-76
2023/04/06 06:41:12;;;;;;;12.70;10.32;;;;;;;2.84;54.24;94619.63;5004788;28;20109;-75
2023/04/06 06:43:37;;;;;;;16.83;10.48;;;;;;;2.95;54.16;94614.16;5006950;28;20048;-76
2023/04/06 06:46:03;;;;;;;15.50;11.20;;;;;;;2.96;54.24;94623.06;5007207;28;20018;-78
2023/04/06 06:48:29;;;;;;;18.20;11.25;;;;;;;3.02;53.82;94618.78;5005503;28;20032;-75
2023/04/06 06:50:55;;;;;;;17.60;10.48;;;;;;;3.19;53.68;94626.06;5004512;28;20034;-78
2023/04/06 06:53:20;;;;;;;16.27;11.05;;;;;;;3.36;53.34;94625.19;5006488;28;20068;-77
2023/04/06 06:55:46;;;;;;;13.77;9.65;;;;;;;3.34;53.08;94613.94;5005804;28;20029;-76
2023/04/06 06:58:11;;;;;;;14.35;10.00;;;;;;;3.41;52.61;94624.00;5004823;28;20405;-76
2023/04/06 07:00:37;;;;;;;12.73;9.13;;;;;;;3.59;52.52;94624.63;5006531;28;20034;-76
2023/04/06 07:03:02;;;;;;;15.32;8.93;;;;;;;3.59;51.87;94616.50;5002619;28;20076;-77
2023/04/06 07:05:28;;;;;;;14.80;10.15;;;;;;;3.61;51.69;94632.38;5005398;28;20105;-77
2023/04/06 07:07:54;;;;;;;13.38;9.25;;;;;;;3.76;51.56;94619.47;5002730;28;20041;-74
2023/04/06 07:10:20;;;;;;;13.50;9.48;;;;;;;3.57;51.73;94626.22;5005086;28;20484;-75
2023/04/06 07:12:46;;;;;;;14.50;9.60;;;;;;;3.59;51.83;94623.88;5004049;28;20029;-75
2023/04/06 07:15:11;;;;;;;12.07;9.20;;;;;;;3.65;51.53;94623.03;5004329;28;20022;-75
2023/04/06 07:17:36;;;;;;;12.38;9.05;;;;;;;3.66;51.07;94610.22;5006118;28;20052;-75
2023/04/06 07:20:02;;;;;;;12.88;9.30;;;;;;;3.63;51.57;94614.53;5036222;28;20022;-75
2023/04/06 07:22:27;;;;;;;12.23;9.55;;;;;;;3.82;51.17;94626.03;5006436;28;20026;-76
2023/04/06 07:24:53;;;;;;;13.60;9.45;;;;;;;3.84;51.19;94621.75;5035400;28;20030;-75
2023/04/06 07:27:18;;;;;;;14.25;9.10;;;;;;;3.72;51.25;94622.97;5006518;28;20021;-75
2023/04/06 07:29:44;;;;;;;13.57;9.68;;;;;;;3.79;51.16;94621.41;5004372;28;20080;-75
2023/04/06 07:32:10;;;;;;;13.20;9.32;;;;;;;3.75;50.69;94631.53;5006013;28;20496;-75
2023/04/06 07:34:35;;;;;;;13.27;9.95;;;;;;;3.89;50.59;94618.56;5004161;28;20397;-75
2023/04/06 07:37:01;;;;;;;13.90;9.38;;;;;;;4.06;49.95;94619.59;5004666;28;20091;-75
2023/04/06 07:39:26;;;;;;;12.38;9.43;;;;;;;3.99;50.37;94617.72;5006260;28;20030;-75
2023/04/06 07:41:52;;;;;;;17.02;9.40;;;;;;;4.15;50.04;94622.63;5006025;28;20042;-74
2023/04/06 07:44:18;;;;;;;18.02;11.18;;;;;;;4.26;49.89;94628.75;5006174;28;20108;-76
2023/04/06 07:46:43;;;;;;;17.13;9.95;;;;;;;4.34;49.56;94606.91;5002254;28;20469;-76
2023/04/06 07:49:09;;;;;;;11.98;8.80;;;;;;;4.35;49.34;94608.44;5005739;28;20030;-77
2023/04/06 07:51:38;;;;;;;12.65;8.57;;;;;;;4.38;49.61;94615.81;5004308;28;20457;-76
2023/04/06 07:54:04;;;;;;;15.45;10.43;;;;;;;4.58;49.08;94619.47;5004919;28;20030;-77
2023/04/06 07:56:29;;;;;;;15.88;10.52;;;;;;;4.73;48.89;94620.09;5005150;28;20030;-78
2023/04/06 07:58:56;;;;;;;11.32;8.95;;;;;;;4.70;47.83;94610.00;5004084;28;20026;-75
2023/04/06 08:01:22;;;;;;;14.18;8.70;;;;;;;5.02;47.39;94634.94;5005426;28;20026;-76
2023/04/06 08:03:48;;;;;;;11.52;8.32;;;;;;;5.13;46.76;94607.53;5003419;28;20034;-76
2023/04/06 08:06:14;;;;;;;11.50;8.38;;;;;;;5.25;47.02;94620.63;5005855;28;20037;-75
2023/04/06 08:08:40;;;;;;;12.82;9.25;;;;;;;5.31;46.47;94618.97;5003643;28;20029;-78
2023/04/06 08:11:05;;;;;;;12.50;8.93;;;;;;;5.25;46.75;94620.63;5005176;28;20034;-76
2023/04/06 08:13:30;;;;;;;12.40;8.95;;;;;;;5.57;46.31;94620.19;5004927;28;20036;-75
2023/04/06 08:15:56;;;;;;;12.18;7.72;;;;;;;5.52;45.21;94612.47;5004725;28;20118;-76
2023/04/06 08:18:22;;;;;;;14.15;8.70;;;;;;;5.67;45.34;94621.19;5004166;28;20385;-75
2023/04/06 08:20:49;;;;;;;12.45;10.10;;;;;;;5.78;45.06;94619.06;5003701;28;20119;-77
2023/04/06 08:23:15;;;;;;;15.85;8.52;;;;;;;6.02;44.69;94613.66;5005276;28;20283;-76
2023/04/06 08:25:41;;;;;;;13.38;8.40;;;;;;;6.13;44.10;94614.25;5003214;28;20508;-77
2023/04/06 08:28:08;;;;;;;12.57;8.80;;;;;;;6.19;43.54;94615.31;5004069;28;20053;-76
2023/04/06 08:30:34;;;;;;;11.52;8.05;;;;;;;6.01;43.40;94615.63;5003942;28;20026;-76
2023/04/06 08:32:59;;;;;;;11.77;8.00;;;;;;;5.86;43.98;94619.75;5003516;28;20022;-76
2023/04/06 08:35:26;;;;;;;12.90;8.95;;;;;;;5.78;44.12;94616.34;5005294;28;20427;-76
2023/04/06 08:37:51;;;;;;;11.73;8.75;;;;;;;5.91;43.90;94621.22;5036844;28;20399;-76
2023/04/06 08:40:17;;;;;;;12.45;8.80;;;;;;;5.86;44.18;94619.75;5005265;28;20492;-76
2023/04/06 08:42:49;;;;;;;12.50;8.65;;;;;;;5.95;44.10;94622.72;5001801;28;20029;-76
2023/04/06 08:45:16;;;;;;;11.50;8.60;;;;;;;6.07;44.09;94629.56;5006790;28;20068;-76
2023/04/06 08:47:42;;;;;;;10.00;7.88;;;;;;;6.10;44.02;94615.88;5005759;28;20073;-77
2023/04/06 08:50:08;;;;;;;10.23;8.15;;;;;;;6.09;43.68;94624.47;5007108;28;20030;-76
2023/04/06 08:52:34;;;;;;;9.93;8.35;;;;;;;6.15;43.51;94619.31;5006724;28;20088;-77
2023/04/06 08:55:00;;;;;;;11.05;8.07;;;;;;;6.28;43.17;94620.25;5038873;28;20463;-77
2023/04/06 08:57:26;;;;;;;11.70;8.25;;;;;;;6.26;43.44;94619.91;5040074;28;20092;-77
2023/04/06 08:59:52;;;;;;;10.30;7.18;;;;;;;6.45;42.97;94612.94;5006180;28;20042;-78
2023/04/06 09:02:18;;;;;;;14.70;9.45;;;;;;;6.56;43.35;94624.44;5006966;28;20389;-76
2023/04/06 09:04:50;;;;;;;11.82;8.45;;;;;;;6.91;42.51;94618.28;5005332;28;20052;-76
2023/04/06 09:07:16;;;;;;;12.88;8.13;;;;;;;7.10;41.99;94615.97;5006946;28;20061;-77
2023/04/06 09:09:47;;;;;;;12.57;8.50;;;;;;;7.37;41.29;94615.78;5022652;28;20096;-78
2023/04/06 09:12:31;;;;;;;12.40;8.30;;;;;;;7.93;40.09;94611.00;5005882;28;21055;-78
2023/04/06 09:14:58;;;;;;;14.65;9.00;;;;;;;8.13;39.80;94613.63;5007483;28;20550;-76
2023/04/06 09:17:33;;;;;;;10.73;7.78;;;;;;;8.43;39.56;94614.50;5004805;28;20084;-78
2023/04/06 09:20:00;;;;;;;10.95;8.88;;;;;;;8.85;38.60;94603.63;5007358;28;20026;-80
2023/04/06 09:22:26;;;;;;;12.85;8.43;;;;;;;9.12;37.85;94600.50;5004785;28;20032;-76
2023/04/06 09:24:53;;;;;;;10.70;7.43;;;;;;;9.44;37.33;94599.56;5023013;28;20053;-78
2023/04/06 09:27:30;;;;;;;9.75;7.97;;;;;;;9.72;36.21;94598.72;5006176;28;20022;-77
2023/04/06 09:30:07;;;;;;;8.77;7.25;;;;;;;9.77;35.91;94600.91;5005017;28;20034;-76
2023/04/06 09:32:46;;;;;;;10.23;7.40;;;;;;;9.92;35.52;94603.19;5011208;28;20422;-79
2023/04/06 09:35:12;;;;;;;12.80;8.52;;;;;;;10.08;35.30;94600.34;5006154;28;20125;-79
2023/04/06 09:37:38;;;;;;;10.90;7.90;;;;;;;9.60;35.92;94599.50;5006433;28;20116;-80
2023/04/06 09:40:07;;;;;;;10.07;7.95;;;;;;;9.78;35.63;94605.19;5022322;28;20026;-78
2023/04/06 09:42:34;;;;;;;9.63;7.57;;;;;;;9.98;35.12;94598.72;5005151;28;20568;-80
2023/04/06 09:45:00;;;;;;;9.48;7.43;;;;;;;10.05;35.56;94599.25;5006782;28;20034;-77
2023/04/06 09:47:26;;;;;;;15.35;8.88;;;;;;;10.07;35.82;94596.06;5004125;28;20026;-81
2023/04/06 09:49:56;;;;;;;10.10;7.70;;;;;;;10.00;35.63;94585.31;5006973;28;20049;-81
2023/04/06 09:52:26;;;;;;;11.20;8.88;;;;;;;9.90;35.98;94589.91;5004238;28;20077;-79
2023/04/06 09:54:55;;;;;;;11.52;8.75;;;;;;;9.92;35.96;94605.94;5006452;28;20037;-80
2023/04/06 09:57:25;;;;;;;10.30;7.72;;;;;;;10.05;34.95;94595.75;5004316;28;20046;-78
2023/04/06 10:00:09;;;;;;;9.07;7.50;;;;;;;9.95;35.20;94592.13;5021481;28;20494;-80
2023/04/06 10:02:53;;;;;;;9.45;7.82;;;;;;;10.40;34.60;94606.81;5007766;28;20029;-80
2023/04/06 10:05:25;;;;;;;10.57;8.35;;;;;;;10.27;34.70;94602.09;5004215;28;20034;-80
2023/04/06 10:07:53;;;;;;;10.27;7.95;;;;;;;10.40;34.57;94593.06;5008060;28;20060;-83
2023/04/06 10:10:19;;;;;;;10.98;8.68;;;;;;;10.78;33.75;94598.41;5005476;28;20429;-81
2023/04/06 10:12:45;;;;;;;9.55;7.57;;;;;;;10.86;33.46;94586.75;5004617;28;20033;-84
2023/04/06 10:15:10;;;;;;;8.50;7.55;;;;;;;10.65;33.63;94587.47;5005879;28;20455;-81
2023/04/06 10:17:36;;;;;;;8.60;7.00;;;;;;;10.71;33.02;94585.69;5003913;28;20026;-77
2023/04/06 10:20:08;;;;;;;8.55;6.50;;;;;;;10.72;32.75;94586.47;5006085;28;20026;-78
2023/04/06 10:22:44;;;;;;;8.77;7.40;;;;;;;10.99;32.32;94586.66;5003404;28;20413;-76
2023/04/06 10:25:09;;;;;;;8.93;7.35;;;;;;;10.86;32.64;94585.97;5022011;28;20056;-77
2023/04/06 10:27:35;;;;;;;9.70;7.43;;;;;;;10.96;32.33;94593.09;5007421;28;20446;-78
2023/04/06 10:30:06;;;;;;;9.45;7.85;;;;;;;11.25;32.14;94587.31;5005946;28;20036;-77
2023/04/06 10:32:36;;;;;;;9.40;7.30;;;;;;;11.62;31.54;94576.47;5005232;28;20034;-79
2023/04/06 10:35:06;;;;;;;7.80;6.65;;;;;;;11.50;31.60;94582.84;5003517;28;20034;-78
2023/04/06 10:37:47;;;;;;;9.68;7.78;;;;;;;11.45;31.93;94581.44;5005648;28;20041;-78
2023/04/06 10:40:24;;;;;;;10.32;7.53;;;;;;;11.58;31.72;94575.84;5003995;28;20026;-78
2023/04/06 10:42:49;;;;;;;7.80;6.32;;;;;;;11.31;31.53;94573.75;5021430;28;20021;-78
2023/04/06 10:45:25;;;;;;;11.10;8.40;;;;;;;11.52;31.68;94574.91;5006682;28;20033;-78
2023/04/06 10:47:55;;;;;;;9.40;7.57;;;;;;;12.87;30.38;94569.41;5019962;28;20065;-78
2023/04/06 10:50:22;;;;;;;7.57;6.57;;;;;;;13.73;28.27;94571.13;5005641;28;20412;-78
2023/04/06 10:52:58;;;;;;;8.13;7.15;;;;;;;14.46;27.66;94570.75;5019422;28;20038;-78
2023/04/06 10:55:25;;;;;;;9.93;7.50;;;;;;;14.30;28.00;94574.69;5005516;28;20043;-79
2023/04/06 10:57:51;;;;;;;8.48;6.80;;;;;;;15.10;27.17;94570.28;5003957;28;20104;-79
2023/04/06 11:00:17;;;;;;;9.60;8.40;;;;;;;14.96;26.66;94565.47;5037119;28;20083;-79
2023/04/06 11:02:43;;;;;;;8.95;7.20;;;;;;;14.70;26.29;94545.09;5004792;28;20025;-79
2023/04/06 11:05:11;;;;;;;8.68;6.85;;;;;;;14.30;26.71;94568.41;5003030;28;20180;-79
2023/04/06 11:07:37;;;;;;;8.48;6.53;;;;;;;13.80;27.27;94559.72;5005229;28;20034;-78
2023/04/06 11:10:03;;;;;;;8.70;7.60;;;;;;;13.61;27.83;94559.03;5003202;28;20087;-79
2023/04/06 11:12:30;;;;;;;9.10;7.30;;;;;;;13.55;27.99;94553.38;5006477;28;20156;-78
2023/04/06 11:15:06;;;;;;;10.88;6.95;;;;;;;13.69;27.67;94551.94;5019797;28;20116;-80
2023/04/06 11:17:38;;;;;;;9.63;6.93;;;;;;;13.61;27.67;94550.00;5004388;28;20455;-79
2023/04/06 11:20:10;;;;;;;9.40;7.28;;;;;;;13.28;28.10;94543.16;5021582;28;20030;-78
2023/04/06 11:22:35;;;;;;;8.07;6.88;;;;;;;12.90;28.68;94542.88;5011040;28;20067;-79
2023/04/06 11:25:08;;;;;;;8.90;7.03;;;;;;;12.21;29.44;94558.81;5005223;28;20029;-79
2023/04/06 11:27:34;;;;;;;8.60;6.65;;;;;;;12.08;29.56;94547.13;5003144;28;20540;-78